Calumet, Oklahoma
Current Conditions -  °F | °C
As of 6:15 AM on Saturday 25 Oct 2014 (Local Time) from KRCE Reporting Station
NA  
Wind Chill: 59°   Ceiling: NA
Heat Index: 59°   Visibility: NA
Dew Point: 59°   Wind: 8mph
Humidity: 100%   Direction: 200°SSW
Pressure: 30.07"   Gusts: NA
Location:  35.6°N, 98.12°W
Report Text: KRCE 251115Z AUTO 20007KT 15/15 A3007 RMK AO2
Loading
Personal Weather Stations






























Interactive Weather Map
Tropical Storm Tracking
New forecast layout! Learn more

10-Day Weather Forecast

Advertisements
Track Severe Weather on mobile